sensor_id;sensor_type;location;lat;lon;timestamp;P1;durP1;ratioP1;P2;durP2;ratioP2
30062;SDS011;16889;67.864;24.990;2023-08-06T00:02:26;3.70;;;3.33;;
30062;SDS011;16889;67.864;24.990;2023-08-06T00:07:12;5.28;;;2.88;;
30062;SDS011;16889;67.864;24.990;2023-08-06T00:11:58;4.70;;;2.95;;
30062;SDS011;16889;67.864;24.990;2023-08-06T00:16:44;3.83;;;2.67;;
30062;SDS011;16889;67.864;24.990;2023-08-06T00:21:30;8.30;;;3.28;;
30062;SDS011;16889;67.864;24.990;2023-08-06T00:26:16;4.45;;;3.13;;
30062;SDS011;16889;67.864;24.990;2023-08-06T00:31:02;6.57;;;2.92;;
30062;SDS011;16889;67.864;24.990;2023-08-06T00:35:48;3.50;;;3.08;;
30062;SDS011;16889;67.864;24.990;2023-08-06T00:40:34;7.00;;;2.88;;
30062;SDS011;16889;67.864;24.990;2023-08-06T00:45:20;4.90;;;2.78;;
30062;SDS011;16889;67.864;24.990;2023-08-06T00:50:07;7.45;;;2.50;;
30062;SDS011;16889;67.864;24.990;2023-08-06T00:54:53;7.85;;;2.60;;
30062;SDS011;16889;67.864;24.990;2023-08-06T00:59:40;3.90;;;2.80;;
30062;SDS011;16889;67.864;24.990;2023-08-06T01:04:26;4.15;;;2.50;;
30062;SDS011;16889;67.864;24.990;2023-08-06T01:14:47;3.92;;;2.53;;
30062;SDS011;16889;67.864;24.990;2023-08-06T01:19:53;3.60;;;1.88;;
30062;SDS011;16889;67.864;24.990;2023-08-06T01:24:39;5.25;;;2.30;;
30062;SDS011;16889;67.864;24.990;2023-08-06T01:29:34;3.55;;;2.28;;
30062;SDS011;16889;67.864;24.990;2023-08-06T01:34:27;2.23;;;2.03;;
30062;SDS011;16889;67.864;24.990;2023-08-06T01:39:16;2.15;;;2.03;;
30062;SDS011;16889;67.864;24.990;2023-08-06T01:44:05;5.82;;;2.42;;
30062;SDS011;16889;67.864;24.990;2023-08-06T01:48:51;2.28;;;2.00;;
30062;SDS011;16889;67.864;24.990;2023-08-06T01:53:37;2.55;;;1.90;;
30062;SDS011;16889;67.864;24.990;2023-08-06T01:58:23;3.75;;;2.05;;
30062;SDS011;16889;67.864;24.990;2023-08-06T02:03:09;2.88;;;2.10;;
30062;SDS011;16889;67.864;24.990;2023-08-06T02:07:55;3.97;;;2.40;;
30062;SDS011;16889;67.864;24.990;2023-08-06T02:12:41;5.20;;;2.22;;
30062;SDS011;16889;67.864;24.990;2023-08-06T02:17:27;4.50;;;1.70;;
30062;SDS011;16889;67.864;24.990;2023-08-06T02:22:13;5.03;;;2.20;;
30062;SDS011;16889;67.864;24.990;2023-08-06T02:26:59;4.05;;;1.83;;
30062;SDS011;16889;67.864;24.990;2023-08-06T02:31:45;2.05;;;1.35;;
30062;SDS011;16889;67.864;24.990;2023-08-06T02:36:31;2.08;;;1.30;;
30062;SDS011;16889;67.864;24.990;2023-08-06T02:41:17;2.63;;;1.10;;
30062;SDS011;16889;67.864;24.990;2023-08-06T02:46:03;4.60;;;1.60;;
30062;SDS011;16889;67.864;24.990;2023-08-06T02:50:49;2.60;;;1.20;;
30062;SDS011;16889;67.864;24.990;2023-08-06T02:55:35;5.07;;;1.13;;
30062;SDS011;16889;67.864;24.990;2023-08-06T03:00:21;3.38;;;1.10;;
30062;SDS011;16889;67.864;24.990;2023-08-06T03:05:07;3.25;;;0.93;;
30062;SDS011;16889;67.864;24.990;2023-08-06T03:09:53;4.32;;;1.08;;
30062;SDS011;16889;67.864;24.990;2023-08-06T03:14:39;2.22;;;1.00;;
30062;SDS011;16889;67.864;24.990;2023-08-06T03:19:25;2.05;;;1.13;;
30062;SDS011;16889;67.864;24.990;2023-08-06T03:24:13;1.65;;;1.00;;
30062;SDS011;16889;67.864;24.990;2023-08-06T03:28:59;4.93;;;1.08;;
30062;SDS011;16889;67.864;24.990;2023-08-06T03:33:45;4.70;;;1.10;;
30062;SDS011;16889;67.864;24.990;2023-08-06T03:38:31;1.45;;;0.80;;
30062;SDS011;16889;67.864;24.990;2023-08-06T03:43:17;1.65;;;0.80;;
30062;SDS011;16889;67.864;24.990;2023-08-06T03:48:03;3.58;;;0.93;;
30062;SDS011;16889;67.864;24.990;2023-08-06T03:52:49;1.63;;;0.60;;
30062;SDS011;16889;67.864;24.990;2023-08-06T03:57:35;3.35;;;0.70;;
30062;SDS011;16889;67.864;24.990;2023-08-06T04:02:21;0.90;;;0.60;;
30062;SDS011;16889;67.864;24.990;2023-08-06T04:07:07;0.60;;;0.60;;
30062;SDS011;16889;67.864;24.990;2023-08-06T04:11:53;1.38;;;0.60;;
30062;SDS011;16889;67.864;24.990;2023-08-06T04:16:39;2.03;;;0.70;;
30062;SDS011;16889;67.864;24.990;2023-08-06T04:21:25;1.40;;;0.50;;
30062;SDS011;16889;67.864;24.990;2023-08-06T04:26:11;3.25;;;0.50;;
30062;SDS011;16889;67.864;24.990;2023-08-06T04:30:57;3.53;;;0.40;;
30062;SDS011;16889;67.864;24.990;2023-08-06T04:35:44;3.50;;;0.60;;
30062;SDS011;16889;67.864;24.990;2023-08-06T04:40:32;2.13;;;0.40;;
30062;SDS011;16889;67.864;24.990;2023-08-06T04:45:19;1.60;;;0.60;;
30062;SDS011;16889;67.864;24.990;2023-08-06T04:50:05;1.20;;;0.40;;
30062;SDS011;16889;67.864;24.990;2023-08-06T04:54:51;3.65;;;0.47;;
30062;SDS011;16889;67.864;24.990;2023-08-06T04:59:38;0.63;;;0.40;;
30062;SDS011;16889;67.864;24.990;2023-08-06T05:04:24;0.88;;;0.30;;
30062;SDS011;16889;67.864;24.990;2023-08-06T05:09:10;0.65;;;0.40;;
30062;SDS011;16889;67.864;24.990;2023-08-06T05:13:56;1.42;;;0.35;;
30062;SDS011;16889;67.864;24.990;2023-08-06T05:18:42;0.30;;;0.30;;
30062;SDS011;16889;67.864;24.990;2023-08-06T05:23:28;2.00;;;0.32;;
30062;SDS011;16889;67.864;24.990;2023-08-06T05:28:14;3.80;;;0.40;;
30062;SDS011;16889;67.864;24.990;2023-08-06T05:33:00;1.58;;;0.40;;
30062;SDS011;16889;67.864;24.990;2023-08-06T05:37:46;1.77;;;0.32;;
30062;SDS011;16889;67.864;24.990;2023-08-06T05:42:32;0.20;;;0.20;;
30062;SDS011;16889;67.864;24.990;2023-08-06T05:47:19;1.23;;;0.30;;
30062;SDS011;16889;67.864;24.990;2023-08-06T05:52:05;0.43;;;0.30;;
30062;SDS011;16889;67.864;24.990;2023-08-06T05:56:53;0.68;;;0.32;;
30062;SDS011;16889;67.864;24.990;2023-08-06T06:01:39;0.85;;;0.35;;
30062;SDS011;16889;67.864;24.990;2023-08-06T06:06:25;4.22;;;0.43;;
30062;SDS011;16889;67.864;24.990;2023-08-06T06:11:11;0.55;;;0.47;;
30062;SDS011;16889;67.864;24.990;2023-08-06T06:15:57;2.67;;;0.40;;
30062;SDS011;16889;67.864;24.990;2023-08-06T06:20:43;1.58;;;0.40;;
30062;SDS011;16889;67.864;24.990;2023-08-06T06:25:29;1.67;;;0.40;;
30062;SDS011;16889;67.864;24.990;2023-08-06T06:30:15;0.77;;;0.40;;
30062;SDS011;16889;67.864;24.990;2023-08-06T06:35:01;0.65;;;0.40;;
30062;SDS011;16889;67.864;24.990;2023-08-06T06:39:47;0.85;;;0.30;;
30062;SDS011;16889;67.864;24.990;2023-08-06T06:44:33;1.20;;;0.50;;
30062;SDS011;16889;67.864;24.990;2023-08-06T06:49:19;2.85;;;0.40;;
30062;SDS011;16889;67.864;24.990;2023-08-06T06:54:05;2.05;;;0.50;;
30062;SDS011;16889;67.864;24.990;2023-08-06T06:58:51;0.65;;;0.30;;
30062;SDS011;16889;67.864;24.990;2023-08-06T07:03:37;0.73;;;0.40;;
30062;SDS011;16889;67.864;24.990;2023-08-06T07:08:23;1.23;;;0.40;;
30062;SDS011;16889;67.864;24.990;2023-08-06T07:13:09;1.35;;;0.40;;
30062;SDS011;16889;67.864;24.990;2023-08-06T07:17:55;0.70;;;0.40;;
30062;SDS011;16889;67.864;24.990;2023-08-06T07:22:41;4.13;;;0.52;;
30062;SDS011;16889;67.864;24.990;2023-08-06T07:27:27;0.93;;;0.40;;
30062;SDS011;16889;67.864;24.990;2023-08-06T07:32:13;0.63;;;0.50;;
30062;SDS011;16889;67.864;24.990;2023-08-06T07:36:59;1.50;;;0.70;;
30062;SDS011;16889;67.864;24.990;2023-08-06T07:41:45;2.72;;;0.47;;
30062;SDS011;16889;67.864;24.990;2023-08-06T07:46:31;2.10;;;0.40;;
30062;SDS011;16889;67.864;24.990;2023-08-06T07:51:17;2.13;;;0.47;;
30062;SDS011;16889;67.864;24.990;2023-08-06T07:56:03;0.80;;;0.40;;
30062;SDS011;16889;67.864;24.990;2023-08-06T08:00:49;3.10;;;0.40;;
30062;SDS011;16889;67.864;24.990;2023-08-06T08:05:35;1.40;;;0.50;;
30062;SDS011;16889;67.864;24.990;2023-08-06T08:10:21;2.35;;;0.70;;
30062;SDS011;16889;67.864;24.990;2023-08-06T08:15:07;2.78;;;0.40;;
30062;SDS011;16889;67.864;24.990;2023-08-06T08:19:53;2.35;;;0.40;;
30062;SDS011;16889;67.864;24.990;2023-08-06T08:24:39;1.25;;;0.57;;
30062;SDS011;16889;67.864;24.990;2023-08-06T08:29:25;2.80;;;0.47;;
30062;SDS011;16889;67.864;24.990;2023-08-06T08:34:11;3.58;;;0.50;;
30062;SDS011;16889;67.864;24.990;2023-08-06T08:38:57;2.92;;;0.40;;
30062;SDS011;16889;67.864;24.990;2023-08-06T08:43:43;2.33;;;0.43;;
30062;SDS011;16889;67.864;24.990;2023-08-06T08:48:29;1.63;;;0.45;;
30062;SDS011;16889;67.864;24.990;2023-08-06T08:53:15;1.08;;;0.30;;
30062;SDS011;16889;67.864;24.990;2023-08-06T08:58:02;1.03;;;0.40;;
30062;SDS011;16889;67.864;24.990;2023-08-06T09:02:48;0.85;;;0.32;;
30062;SDS011;16889;67.864;24.990;2023-08-06T09:07:35;2.70;;;0.50;;
30062;SDS011;16889;67.864;24.990;2023-08-06T09:12:32;3.73;;;0.40;;
30062;SDS011;16889;67.864;24.990;2023-08-06T09:17:18;2.05;;;0.60;;
30062;SDS011;16889;67.864;24.990;2023-08-06T09:22:05;0.57;;;0.50;;
30062;SDS011;16889;67.864;24.990;2023-08-06T09:26:56;2.67;;;0.50;;
30062;SDS011;16889;67.864;24.990;2023-08-06T09:31:44;1.08;;;0.50;;
30062;SDS011;16889;67.864;24.990;2023-08-06T09:36:31;4.60;;;0.52;;
30062;SDS011;16889;67.864;24.990;2023-08-06T09:41:26;0.85;;;0.50;;
30062;SDS011;16889;67.864;24.990;2023-08-06T09:46:15;2.05;;;0.60;;
30062;SDS011;16889;67.864;24.990;2023-08-06T09:51:01;3.72;;;0.60;;
30062;SDS011;16889;67.864;24.990;2023-08-06T09:55:48;1.20;;;0.50;;
30062;SDS011;16889;67.864;24.990;2023-08-06T10:00:34;3.90;;;0.60;;
30062;SDS011;16889;67.864;24.990;2023-08-06T10:05:20;1.58;;;0.52;;
30062;SDS011;16889;67.864;24.990;2023-08-06T10:10:07;2.25;;;0.60;;
30062;SDS011;16889;67.864;24.990;2023-08-06T10:14:54;0.73;;;0.55;;
30062;SDS011;16889;67.864;24.990;2023-08-06T10:19:44;3.80;;;0.50;;
30062;SDS011;16889;67.864;24.990;2023-08-06T10:24:45;5.10;;;0.50;;
30062;SDS011;16889;67.864;24.990;2023-08-06T10:34:48;1.52;;;0.47;;
30062;SDS011;16889;67.864;24.990;2023-08-06T10:39:51;0.73;;;0.40;;
30062;SDS011;16889;67.864;24.990;2023-08-06T10:44:38;2.63;;;0.50;;
30062;SDS011;16889;67.864;24.990;2023-08-06T10:50:14;3.45;;;0.60;;
30062;SDS011;16889;67.864;24.990;2023-08-06T10:55:04;1.58;;;0.60;;
30062;SDS011;16889;67.864;24.990;2023-08-06T10:59:50;1.80;;;0.55;;
30062;SDS011;16889;67.864;24.990;2023-08-06T11:04:38;1.27;;;0.60;;
30062;SDS011;16889;67.864;24.990;2023-08-06T11:09:25;0.90;;;0.57;;
30062;SDS011;16889;67.864;24.990;2023-08-06T11:14:15;2.72;;;0.60;;
30062;SDS011;16889;67.864;24.990;2023-08-06T11:19:01;2.05;;;0.70;;
30062;SDS011;16889;67.864;24.990;2023-08-06T11:23:47;2.05;;;0.70;;
30062;SDS011;16889;67.864;24.990;2023-08-06T11:28:34;2.55;;;0.80;;
30062;SDS011;16889;67.864;24.990;2023-08-06T11:33:20;1.25;;;0.60;;
30062;SDS011;16889;67.864;24.990;2023-08-06T11:38:07;2.67;;;0.70;;
30062;SDS011;16889;67.864;24.990;2023-08-06T11:42:54;1.15;;;0.65;;
30062;SDS011;16889;67.864;24.990;2023-08-06T11:47:41;2.93;;;0.83;;
30062;SDS011;16889;67.864;24.990;2023-08-06T11:52:27;3.38;;;0.80;;
30062;SDS011;16889;67.864;24.990;2023-08-06T11:57:13;1.13;;;0.80;;
30062;SDS011;16889;67.864;24.990;2023-08-06T12:02:04;0.93;;;0.63;;
30062;SDS011;16889;67.864;24.990;2023-08-06T12:06:53;1.25;;;0.60;;
30062;SDS011;16889;67.864;24.990;2023-08-06T12:11:39;2.30;;;0.95;;
30062;SDS011;16889;67.864;24.990;2023-08-06T12:16:25;0.88;;;0.73;;
30062;SDS011;16889;67.864;24.990;2023-08-06T12:21:11;1.70;;;0.80;;
30062;SDS011;16889;67.864;24.990;2023-08-06T12:25:57;2.10;;;0.85;;
30062;SDS011;16889;67.864;24.990;2023-08-06T12:30:43;1.98;;;0.80;;
30062;SDS011;16889;67.864;24.990;2023-08-06T12:35:30;1.75;;;0.80;;
30062;SDS011;16889;67.864;24.990;2023-08-06T12:40:16;1.67;;;0.90;;
30062;SDS011;16889;67.864;24.990;2023-08-06T12:45:02;2.00;;;0.80;;
30062;SDS011;16889;67.864;24.990;2023-08-06T12:49:48;1.05;;;0.85;;
30062;SDS011;16889;67.864;24.990;2023-08-06T12:54:35;4.25;;;1.20;;
30062;SDS011;16889;67.864;24.990;2023-08-06T12:59:23;2.58;;;1.10;;
30062;SDS011;16889;67.864;24.990;2023-08-06T13:04:09;2.30;;;1.10;;
30062;SDS011;16889;67.864;24.990;2023-08-06T13:08:56;2.25;;;0.98;;
30062;SDS011;16889;67.864;24.990;2023-08-06T13:13:42;2.23;;;0.90;;
30062;SDS011;16889;67.864;24.990;2023-08-06T13:18:28;2.95;;;1.30;;
30062;SDS011;16889;67.864;24.990;2023-08-06T13:23:14;3.83;;;1.38;;
30062;SDS011;16889;67.864;24.990;2023-08-06T13:28:02;1.70;;;1.08;;
30062;SDS011;16889;67.864;24.990;2023-08-06T13:32:48;3.10;;;0.90;;
30062;SDS011;16889;67.864;24.990;2023-08-06T13:37:34;2.47;;;1.40;;
30062;SDS011;16889;67.864;24.990;2023-08-06T13:42:20;2.42;;;1.30;;
30062;SDS011;16889;67.864;24.990;2023-08-06T13:47:07;1.23;;;0.90;;
30062;SDS011;16889;67.864;24.990;2023-08-06T13:51:53;1.63;;;1.10;;
30062;SDS011;16889;67.864;24.990;2023-08-06T13:56:39;2.53;;;1.20;;
30062;SDS011;16889;67.864;24.990;2023-08-06T14:01:25;1.70;;;1.10;;
30062;SDS011;16889;67.864;24.990;2023-08-06T14:06:11;4.60;;;1.20;;
30062;SDS011;16889;67.864;24.990;2023-08-06T14:10:57;4.97;;;1.05;;
30062;SDS011;16889;67.864;24.990;2023-08-06T14:15:42;2.20;;;1.20;;
30062;SDS011;16889;67.864;24.990;2023-08-06T14:20:31;2.95;;;1.30;;
30062;SDS011;16889;67.864;24.990;2023-08-06T14:25:18;5.07;;;1.50;;
30062;SDS011;16889;67.864;24.990;2023-08-06T14:30:05;2.78;;;1.35;;
30062;SDS011;16889;67.864;24.990;2023-08-06T14:39:38;2.05;;;1.40;;
30062;SDS011;16889;67.864;24.990;2023-08-06T14:44:23;3.45;;;1.63;;
30062;SDS011;16889;67.864;24.990;2023-08-06T14:49:09;3.20;;;1.20;;
30062;SDS011;16889;67.864;24.990;2023-08-06T14:53:55;1.52;;;1.20;;
30062;SDS011;16889;67.864;24.990;2023-08-06T14:58:41;4.13;;;1.17;;
30062;SDS011;16889;67.864;24.990;2023-08-06T15:03:27;3.72;;;1.33;;
30062;SDS011;16889;67.864;24.990;2023-08-06T15:08:13;2.72;;;1.23;;
30062;SDS011;16889;67.864;24.990;2023-08-06T15:12:59;5.43;;;1.15;;
30062;SDS011;16889;67.864;24.990;2023-08-06T15:17:46;1.50;;;1.10;;
30062;SDS011;16889;67.864;24.990;2023-08-06T15:22:32;2.40;;;1.15;;
30062;SDS011;16889;67.864;24.990;2023-08-06T15:27:18;1.83;;;1.40;;
30062;SDS011;16889;67.864;24.990;2023-08-06T15:32:05;2.08;;;1.35;;
30062;SDS011;16889;67.864;24.990;2023-08-06T15:36:51;1.88;;;1.20;;
30062;SDS011;16889;67.864;24.990;2023-08-06T15:41:37;3.63;;;1.10;;
30062;SDS011;16889;67.864;24.990;2023-08-06T15:46:23;6.97;;;1.50;;
30062;SDS011;16889;67.864;24.990;2023-08-06T15:51:09;2.40;;;1.45;;
30062;SDS011;16889;67.864;24.990;2023-08-06T15:55:55;2.70;;;1.23;;
30062;SDS011;16889;67.864;24.990;2023-08-06T16:00:41;2.85;;;1.40;;
30062;SDS011;16889;67.864;24.990;2023-08-06T16:05:26;2.00;;;1.20;;
30062;SDS011;16889;67.864;24.990;2023-08-06T16:10:13;4.47;;;1.30;;
30062;SDS011;16889;67.864;24.990;2023-08-06T16:14:59;5.75;;;1.30;;
30062;SDS011;16889;67.864;24.990;2023-08-06T16:19:45;2.28;;;1.40;;
30062;SDS011;16889;67.864;24.990;2023-08-06T16:24:30;4.25;;;1.30;;
30062;SDS011;16889;67.864;24.990;2023-08-06T16:29:16;5.72;;;1.50;;
30062;SDS011;16889;67.864;24.990;2023-08-06T16:34:02;1.80;;;1.13;;
30062;SDS011;16889;67.864;24.990;2023-08-06T16:38:49;4.10;;;1.45;;
30062;SDS011;16889;67.864;24.990;2023-08-06T16:43:35;3.03;;;1.30;;
30062;SDS011;16889;67.864;24.990;2023-08-06T16:48:21;5.00;;;1.30;;
30062;SDS011;16889;67.864;24.990;2023-08-06T16:53:15;4.13;;;1.30;;
30062;SDS011;16889;67.864;24.990;2023-08-06T16:58:01;5.68;;;1.27;;
30062;SDS011;16889;67.864;24.990;2023-08-06T17:02:47;3.00;;;1.48;;
30062;SDS011;16889;67.864;24.990;2023-08-06T17:07:33;4.03;;;1.60;;
30062;SDS011;16889;67.864;24.990;2023-08-06T17:12:20;3.35;;;1.50;;
30062;SDS011;16889;67.864;24.990;2023-08-06T17:17:06;4.10;;;1.30;;
30062;SDS011;16889;67.864;24.990;2023-08-06T17:21:52;3.60;;;1.40;;
30062;SDS011;16889;67.864;24.990;2023-08-06T17:26:38;2.67;;;1.42;;
30062;SDS011;16889;67.864;24.990;2023-08-06T17:31:24;1.73;;;1.25;;
30062;SDS011;16889;67.864;24.990;2023-08-06T17:36:09;3.17;;;1.30;;
30062;SDS011;16889;67.864;24.990;2023-08-06T17:40:55;9.65;;;1.67;;
30062;SDS011;16889;67.864;24.990;2023-08-06T17:45:42;4.10;;;1.40;;
30062;SDS011;16889;67.864;24.990;2023-08-06T17:50:30;5.90;;;1.30;;
30062;SDS011;16889;67.864;24.990;2023-08-06T17:55:16;7.72;;;1.83;;
30062;SDS011;16889;67.864;24.990;2023-08-06T18:00:02;4.55;;;1.27;;
30062;SDS011;16889;67.864;24.990;2023-08-06T18:04:49;3.05;;;1.30;;
30062;SDS011;16889;67.864;24.990;2023-08-06T18:09:35;3.13;;;1.52;;
30062;SDS011;16889;67.864;24.990;2023-08-06T18:14:22;3.55;;;1.30;;
30062;SDS011;16889;67.864;24.990;2023-08-06T18:19:07;6.07;;;1.42;;
30062;SDS011;16889;67.864;24.990;2023-08-06T18:23:53;2.75;;;1.38;;
30062;SDS011;16889;67.864;24.990;2023-08-06T18:28:39;4.15;;;1.48;;
30062;SDS011;16889;67.864;24.990;2023-08-06T18:33:30;5.57;;;1.70;;
30062;SDS011;16889;67.864;24.990;2023-08-06T18:38:16;1.90;;;1.30;;
30062;SDS011;16889;67.864;24.990;2023-08-06T18:43:02;5.93;;;1.33;;
30062;SDS011;16889;67.864;24.990;2023-08-06T18:47:48;6.30;;;1.50;;
30062;SDS011;16889;67.864;24.990;2023-08-06T18:52:35;3.40;;;1.50;;
30062;SDS011;16889;67.864;24.990;2023-08-06T18:57:23;5.65;;;1.50;;
30062;SDS011;16889;67.864;24.990;2023-08-06T19:02:09;3.13;;;1.40;;
30062;SDS011;16889;67.864;24.990;2023-08-06T19:06:55;3.97;;;1.83;;
30062;SDS011;16889;67.864;24.990;2023-08-06T19:11:41;2.92;;;1.60;;
30062;SDS011;16889;67.864;24.990;2023-08-06T19:16:26;4.32;;;1.38;;
30062;SDS011;16889;67.864;24.990;2023-08-06T19:21:12;3.78;;;1.55;;
30062;SDS011;16889;67.864;24.990;2023-08-06T19:25:59;3.60;;;1.27;;
30062;SDS011;16889;67.864;24.990;2023-08-06T19:30:47;5.28;;;1.50;;
30062;SDS011;16889;67.864;24.990;2023-08-06T19:35:34;2.72;;;1.30;;
30062;SDS011;16889;67.864;24.990;2023-08-06T19:40:20;1.77;;;1.30;;
30062;SDS011;16889;67.864;24.990;2023-08-06T19:45:06;2.22;;;1.10;;
30062;SDS011;16889;67.864;24.990;2023-08-06T19:49:52;4.40;;;1.60;;
30062;SDS011;16889;67.864;24.990;2023-08-06T19:54:38;5.20;;;1.48;;
30062;SDS011;16889;67.864;24.990;2023-08-06T19:59:24;4.97;;;1.70;;
30062;SDS011;16889;67.864;24.990;2023-08-06T20:04:10;18.67;;;2.50;;
30062;SDS011;16889;67.864;24.990;2023-08-06T20:08:56;2.90;;;1.58;;
30062;SDS011;16889;67.864;24.990;2023-08-06T20:13:42;4.15;;;1.77;;
30062;SDS011;16889;67.864;24.990;2023-08-06T20:18:28;5.85;;;1.73;;
30062;SDS011;16889;67.864;24.990;2023-08-06T20:23:14;2.45;;;1.48;;
30062;SDS011;16889;67.864;24.990;2023-08-06T20:28:01;7.72;;;1.90;;
30062;SDS011;16889;67.864;24.990;2023-08-06T20:32:47;7.90;;;1.83;;
30062;SDS011;16889;67.864;24.990;2023-08-06T20:37:33;3.83;;;1.83;;
30062;SDS011;16889;67.864;24.990;2023-08-06T20:42:21;4.32;;;2.03;;
30062;SDS011;16889;67.864;24.990;2023-08-06T20:47:07;2.65;;;1.90;;
30062;SDS011;16889;67.864;24.990;2023-08-06T20:51:53;5.88;;;2.10;;
30062;SDS011;16889;67.864;24.990;2023-08-06T20:56:39;7.40;;;3.35;;
30062;SDS011;16889;67.864;24.990;2023-08-06T21:01:25;5.35;;;2.20;;
30062;SDS011;16889;67.864;24.990;2023-08-06T21:06:11;4.50;;;1.95;;
30062;SDS011;16889;67.864;24.990;2023-08-06T21:10:58;9.77;;;2.20;;
30062;SDS011;16889;67.864;24.990;2023-08-06T21:15:44;4.87;;;2.03;;
30062;SDS011;16889;67.864;24.990;2023-08-06T21:20:30;2.63;;;1.88;;
30062;SDS011;16889;67.864;24.990;2023-08-06T21:25:16;9.18;;;1.80;;
30062;SDS011;16889;67.864;24.990;2023-08-06T21:30:09;6.20;;;1.80;;
30062;SDS011;16889;67.864;24.990;2023-08-06T21:34:57;2.00;;;1.40;;
30062;SDS011;16889;67.864;24.990;2023-08-06T21:39:43;6.60;;;1.83;;
30062;SDS011;16889;67.864;24.990;2023-08-06T21:44:29;4.55;;;1.40;;
30062;SDS011;16889;67.864;24.990;2023-08-06T21:49:15;8.88;;;2.03;;
30062;SDS011;16889;67.864;24.990;2023-08-06T21:54:01;4.95;;;1.98;;
30062;SDS011;16889;67.864;24.990;2023-08-06T21:58:48;3.55;;;2.42;;
30062;SDS011;16889;67.864;24.990;2023-08-06T22:03:43;4.22;;;2.30;;
30062;SDS011;16889;67.864;24.990;2023-08-06T22:08:30;8.75;;;2.63;;
30062;SDS011;16889;67.864;24.990;2023-08-06T22:13:16;3.10;;;2.10;;
30062;SDS011;16889;67.864;24.990;2023-08-06T22:18:02;4.30;;;2.20;;
30062;SDS011;16889;67.864;24.990;2023-08-06T22:22:48;6.78;;;2.45;;
30062;SDS011;16889;67.864;24.990;2023-08-06T22:27:35;5.70;;;2.63;;
30062;SDS011;16889;67.864;24.990;2023-08-06T22:32:21;4.40;;;2.40;;
30062;SDS011;16889;67.864;24.990;2023-08-06T22:37:07;5.30;;;2.60;;
30062;SDS011;16889;67.864;24.990;2023-08-06T22:41:53;3.60;;;2.40;;
30062;SDS011;16889;67.864;24.990;2023-08-06T22:46:39;3.35;;;2.30;;
30062;SDS011;16889;67.864;24.990;2023-08-06T22:51:25;6.65;;;2.00;;
30062;SDS011;16889;67.864;24.990;2023-08-06T22:56:11;4.78;;;2.30;;
30062;SDS011;16889;67.864;24.990;2023-08-06T23:00:57;8.85;;;1.85;;
30062;SDS011;16889;67.864;24.990;2023-08-06T23:05:46;4.75;;;2.45;;
30062;SDS011;16889;67.864;24.990;2023-08-06T23:10:32;4.28;;;2.30;;
30062;SDS011;16889;67.864;24.990;2023-08-06T23:15:19;7.93;;;2.40;;
30062;SDS011;16889;67.864;24.990;2023-08-06T23:20:06;6.75;;;1.98;;
30062;SDS011;16889;67.864;24.990;2023-08-06T23:24:53;5.32;;;2.38;;
30062;SDS011;16889;67.864;24.990;2023-08-06T23:29:39;6.65;;;2.75;;
30062;SDS011;16889;67.864;24.990;2023-08-06T23:34:25;3.97;;;2.53;;
30062;SDS011;16889;67.864;24.990;2023-08-06T23:39:11;4.75;;;2.13;;
30062;SDS011;16889;67.864;24.990;2023-08-06T23:43:57;4.57;;;2.60;;
30062;SDS011;16889;67.864;24.990;2023-08-06T23:48:43;4.65;;;2.90;;
30062;SDS011;16889;67.864;24.990;2023-08-06T23:53:29;4.55;;;2.40;;
30062;SDS011;16889;67.864;24.990;2023-08-06T23:58:16;2.97;;;2.03;;
